sensor_id;sensor_type;location;lat;lon;timestamp;pressure;altitude;pressure_sealevel;temperature
9119;BMP180;4594;50.994;7.126;2023-09-12T00:01:25;100301.00;;;27.40
9119;BMP180;4594;50.994;7.126;2023-09-12T00:03:51;100301.00;;;27.40
9119;BMP180;4594;50.994;7.126;2023-09-12T00:06:16;100318.00;;;27.40
9119;BMP180;4594;50.994;7.126;2023-09-12T00:08:42;100333.00;;;27.40
9119;BMP180;4594;50.994;7.126;2023-09-12T00:11:10;100320.00;;;27.30
9119;BMP180;4594;50.994;7.126;2023-09-12T00:13:38;100308.00;;;27.30
9119;BMP180;4594;50.994;7.126;2023-09-12T00:16:04;100315.00;;;27.30
9119;BMP180;4594;50.994;7.126;2023-09-12T00:18:31;100333.00;;;27.20
9119;BMP180;4594;50.994;7.126;2023-09-12T00:20:58;100319.00;;;27.20
9119;BMP180;4594;50.994;7.126;2023-09-12T00:23:26;100309.00;;;27.20
9119;BMP180;4594;50.994;7.126;2023-09-12T00:25:52;100306.00;;;27.20
9119;BMP180;4594;50.994;7.126;2023-09-12T00:28:18;100324.00;;;27.10
9119;BMP180;4594;50.994;7.126;2023-09-12T00:30:44;100299.00;;;27.10
9119;BMP180;4594;50.994;7.126;2023-09-12T00:33:10;100295.00;;;27.10
9119;BMP180;4594;50.994;7.126;2023-09-12T00:35:35;100311.00;;;27.10
9119;BMP180;4594;50.994;7.126;2023-09-12T00:38:01;100319.00;;;27.00
9119;BMP180;4594;50.994;7.126;2023-09-12T00:40:28;100304.00;;;27.00
9119;BMP180;4594;50.994;7.126;2023-09-12T00:42:55;100319.00;;;27.00
9119;BMP180;4594;50.994;7.126;2023-09-12T00:45:20;100308.00;;;26.90
9119;BMP180;4594;50.994;7.126;2023-09-12T00:47:47;100305.00;;;26.90
9119;BMP180;4594;50.994;7.126;2023-09-12T00:50:14;100291.00;;;26.90
9119;BMP180;4594;50.994;7.126;2023-09-12T00:52:41;100291.00;;;26.80
9119;BMP180;4594;50.994;7.126;2023-09-12T00:55:44;100273.00;;;26.80
9119;BMP180;4594;50.994;7.126;2023-09-12T00:58:11;100267.00;;;26.70
9119;BMP180;4594;50.994;7.126;2023-09-12T01:00:37;100269.00;;;26.70
9119;BMP180;4594;50.994;7.126;2023-09-12T01:03:04;100252.00;;;26.70
9119;BMP180;4594;50.994;7.126;2023-09-12T01:05:29;100251.00;;;26.70
9119;BMP180;4594;50.994;7.126;2023-09-12T01:07:56;100260.00;;;26.70
9119;BMP180;4594;50.994;7.126;2023-09-12T01:10:22;100248.00;;;26.70
9119;BMP180;4594;50.994;7.126;2023-09-12T01:12:47;100263.00;;;26.60
9119;BMP180;4594;50.994;7.126;2023-09-12T01:15:13;100267.00;;;26.60
9119;BMP180;4594;50.994;7.126;2023-09-12T01:17:42;100261.00;;;26.60
9119;BMP180;4594;50.994;7.126;2023-09-12T01:20:25;100284.00;;;26.60
9119;BMP180;4594;50.994;7.126;2023-09-12T01:26:23;100286.00;;;26.50
9119;BMP180;4594;50.994;7.126;2023-09-12T01:28:57;100270.00;;;26.50
9119;BMP180;4594;50.994;7.126;2023-09-12T01:31:24;100278.00;;;26.50
9119;BMP180;4594;50.994;7.126;2023-09-12T01:34:07;100281.00;;;26.50
9119;BMP180;4594;50.994;7.126;2023-09-12T01:36:33;100279.00;;;26.40
9119;BMP180;4594;50.994;7.126;2023-09-12T01:38:59;100282.00;;;26.40
9119;BMP180;4594;50.994;7.126;2023-09-12T01:41:26;100276.00;;;26.40
9119;BMP180;4594;50.994;7.126;2023-09-12T01:43:54;100273.00;;;26.40
9119;BMP180;4594;50.994;7.126;2023-09-12T01:46:21;100287.00;;;26.40
9119;BMP180;4594;50.994;7.126;2023-09-12T01:48:49;100282.00;;;26.40
9119;BMP180;4594;50.994;7.126;2023-09-12T01:51:18;100300.00;;;26.40
9119;BMP180;4594;50.994;7.126;2023-09-12T01:53:45;100307.00;;;26.40
9119;BMP180;4594;50.994;7.126;2023-09-12T01:56:13;100297.00;;;26.40
9119;BMP180;4594;50.994;7.126;2023-09-12T01:58:39;100292.00;;;26.40
9119;BMP180;4594;50.994;7.126;2023-09-12T02:01:05;100281.00;;;26.40
9119;BMP180;4594;50.994;7.126;2023-09-12T02:03:30;100280.00;;;26.40
9119;BMP180;4594;50.994;7.126;2023-09-12T02:05:56;100285.00;;;26.30
9119;BMP180;4594;50.994;7.126;2023-09-12T02:08:22;100289.00;;;26.30
9119;BMP180;4594;50.994;7.126;2023-09-12T02:10:48;100263.00;;;26.30
9119;BMP180;4594;50.994;7.126;2023-09-12T02:13:13;100286.00;;;26.30
9119;BMP180;4594;50.994;7.126;2023-09-12T02:15:39;100269.00;;;26.20
9119;BMP180;4594;50.994;7.126;2023-09-12T02:18:05;100271.00;;;26.20
9119;BMP180;4594;50.994;7.126;2023-09-12T02:20:33;100287.00;;;26.20
9119;BMP180;4594;50.994;7.126;2023-09-12T02:22:58;100257.00;;;26.10
9119;BMP180;4594;50.994;7.126;2023-09-12T02:25:24;100285.00;;;26.10
9119;BMP180;4594;50.994;7.126;2023-09-12T02:27:49;100260.00;;;26.10
9119;BMP180;4594;50.994;7.126;2023-09-12T02:30:15;100282.00;;;26.00
9119;BMP180;4594;50.994;7.126;2023-09-12T02:32:44;100290.00;;;26.00
9119;BMP180;4594;50.994;7.126;2023-09-12T02:35:10;100303.00;;;25.90
9119;BMP180;4594;50.994;7.126;2023-09-12T02:37:35;100290.00;;;26.00
9119;BMP180;4594;50.994;7.126;2023-09-12T02:40:02;100303.00;;;25.90
9119;BMP180;4594;50.994;7.126;2023-09-12T02:42:30;100307.00;;;25.90
9119;BMP180;4594;50.994;7.126;2023-09-12T02:44:56;100326.00;;;25.90
9119;BMP180;4594;50.994;7.126;2023-09-12T02:47:22;100321.00;;;25.90
9119;BMP180;4594;50.994;7.126;2023-09-12T02:49:47;100324.00;;;25.80
9119;BMP180;4594;50.994;7.126;2023-09-12T02:52:13;100313.00;;;25.80
9119;BMP180;4594;50.994;7.126;2023-09-12T02:54:39;100305.00;;;25.80
9119;BMP180;4594;50.994;7.126;2023-09-12T02:57:04;100302.00;;;25.80
9119;BMP180;4594;50.994;7.126;2023-09-12T02:59:30;100285.00;;;25.80
9119;BMP180;4594;50.994;7.126;2023-09-12T03:01:56;100275.00;;;25.80
9119;BMP180;4594;50.994;7.126;2023-09-12T03:04:22;100271.00;;;25.80
9119;BMP180;4594;50.994;7.126;2023-09-12T03:06:48;100258.00;;;25.80
9119;BMP180;4594;50.994;7.126;2023-09-12T03:09:14;100272.00;;;25.80
9119;BMP180;4594;50.994;7.126;2023-09-12T03:11:42;100277.00;;;25.80
9119;BMP180;4594;50.994;7.126;2023-09-12T03:14:07;100257.00;;;25.80
9119;BMP180;4594;50.994;7.126;2023-09-12T03:16:33;100276.00;;;25.90
9119;BMP180;4594;50.994;7.126;2023-09-12T03:18:59;100249.00;;;25.90
9119;BMP180;4594;50.994;7.126;2023-09-12T03:21:26;100270.00;;;25.90
9119;BMP180;4594;50.994;7.126;2023-09-12T03:23:52;100254.00;;;25.90
9119;BMP180;4594;50.994;7.126;2023-09-12T03:26:17;100232.00;;;25.90
9119;BMP180;4594;50.994;7.126;2023-09-12T03:28:43;100239.00;;;25.90
9119;BMP180;4594;50.994;7.126;2023-09-12T03:31:12;100253.00;;;25.90
9119;BMP180;4594;50.994;7.126;2023-09-12T03:33:38;100244.00;;;25.90
9119;BMP180;4594;50.994;7.126;2023-09-12T03:36:05;100238.00;;;25.90
9119;BMP180;4594;50.994;7.126;2023-09-12T03:38:32;100239.00;;;25.80
9119;BMP180;4594;50.994;7.126;2023-09-12T03:40:58;100250.00;;;25.80
9119;BMP180;4594;50.994;7.126;2023-09-12T03:43:24;100246.00;;;25.80
9119;BMP180;4594;50.994;7.126;2023-09-12T03:45:50;100255.00;;;25.80
9119;BMP180;4594;50.994;7.126;2023-09-12T03:48:16;100252.00;;;25.80
9119;BMP180;4594;50.994;7.126;2023-09-12T03:50:41;100260.00;;;25.80
9119;BMP180;4594;50.994;7.126;2023-09-12T03:53:08;100245.00;;;25.80
9119;BMP180;4594;50.994;7.126;2023-09-12T03:55:34;100244.00;;;25.80
9119;BMP180;4594;50.994;7.126;2023-09-12T03:57:59;100245.00;;;25.80
9119;BMP180;4594;50.994;7.126;2023-09-12T04:00:25;100247.00;;;25.70
9119;BMP180;4594;50.994;7.126;2023-09-12T04:02:51;100247.00;;;25.70
9119;BMP180;4594;50.994;7.126;2023-09-12T04:05:16;100250.00;;;25.70
9119;BMP180;4594;50.994;7.126;2023-09-12T04:07:42;100236.00;;;25.70
9119;BMP180;4594;50.994;7.126;2023-09-12T04:10:08;100215.00;;;25.70
9119;BMP180;4594;50.994;7.126;2023-09-12T04:12:34;100231.00;;;25.70
9119;BMP180;4594;50.994;7.126;2023-09-12T04:15:00;100248.00;;;25.80
9119;BMP180;4594;50.994;7.126;2023-09-12T04:17:25;100222.00;;;25.80
9119;BMP180;4594;50.994;7.126;2023-09-12T04:19:51;100230.00;;;25.80
9119;BMP180;4594;50.994;7.126;2023-09-12T04:22:17;100234.00;;;25.80
9119;BMP180;4594;50.994;7.126;2023-09-12T04:24:42;100235.00;;;25.80
9119;BMP180;4594;50.994;7.126;2023-09-12T04:27:08;100238.00;;;25.90
9119;BMP180;4594;50.994;7.126;2023-09-12T04:29:34;100228.00;;;25.90
9119;BMP180;4594;50.994;7.126;2023-09-12T04:32:04;100237.00;;;25.90
9119;BMP180;4594;50.994;7.126;2023-09-12T04:34:30;100225.00;;;25.90
9119;BMP180;4594;50.994;7.126;2023-09-12T04:36:56;100229.00;;;25.90
9119;BMP180;4594;50.994;7.126;2023-09-12T04:39:22;100237.00;;;26.00
9119;BMP180;4594;50.994;7.126;2023-09-12T04:41:48;100218.00;;;26.00
9119;BMP180;4594;50.994;7.126;2023-09-12T04:44:13;100219.00;;;26.00
9119;BMP180;4594;50.994;7.126;2023-09-12T04:46:39;100229.00;;;26.00
9119;BMP180;4594;50.994;7.126;2023-09-12T04:49:05;100197.00;;;26.00
9119;BMP180;4594;50.994;7.126;2023-09-12T04:51:30;100168.00;;;26.00
9119;BMP180;4594;50.994;7.126;2023-09-12T04:53:56;100178.00;;;26.00
9119;BMP180;4594;50.994;7.126;2023-09-12T04:56:22;100205.00;;;26.00
9119;BMP180;4594;50.994;7.126;2023-09-12T04:58:50;100213.00;;;26.00
9119;BMP180;4594;50.994;7.126;2023-09-12T05:01:16;100166.00;;;26.00
9119;BMP180;4594;50.994;7.126;2023-09-12T05:03:43;100163.00;;;26.00
9119;BMP180;4594;50.994;7.126;2023-09-12T05:06:10;100166.00;;;26.00
9119;BMP180;4594;50.994;7.126;2023-09-12T05:08:36;100166.00;;;26.00
9119;BMP180;4594;50.994;7.126;2023-09-12T05:11:01;100188.00;;;26.00
9119;BMP180;4594;50.994;7.126;2023-09-12T05:13:29;100172.00;;;25.90
9119;BMP180;4594;50.994;7.126;2023-09-12T05:15:55;100194.00;;;25.80
9119;BMP180;4594;50.994;7.126;2023-09-12T05:18:22;100232.00;;;25.70
9119;BMP180;4594;50.994;7.126;2023-09-12T05:20:48;100218.00;;;25.70
9119;BMP180;4594;50.994;7.126;2023-09-12T05:23:14;100256.00;;;25.70
9119;BMP180;4594;50.994;7.126;2023-09-12T05:25:39;100236.00;;;25.70
9119;BMP180;4594;50.994;7.126;2023-09-12T05:28:05;100255.00;;;25.90
9119;BMP180;4594;50.994;7.126;2023-09-12T05:30:31;100262.00;;;25.90
9119;BMP180;4594;50.994;7.126;2023-09-12T05:32:57;100262.00;;;26.00
9119;BMP180;4594;50.994;7.126;2023-09-12T05:35:22;100279.00;;;26.10
9119;BMP180;4594;50.994;7.126;2023-09-12T05:37:49;100279.00;;;26.10
9119;BMP180;4594;50.994;7.126;2023-09-12T05:40:15;100283.00;;;26.20
9119;BMP180;4594;50.994;7.126;2023-09-12T05:42:41;100288.00;;;26.20
9119;BMP180;4594;50.994;7.126;2023-09-12T05:45:07;100292.00;;;26.30
9119;BMP180;4594;50.994;7.126;2023-09-12T05:47:32;100311.00;;;26.30
9119;BMP180;4594;50.994;7.126;2023-09-12T05:49:58;100312.00;;;26.40
9119;BMP180;4594;50.994;7.126;2023-09-12T05:52:26;100314.00;;;26.40
9119;BMP180;4594;50.994;7.126;2023-09-12T05:54:52;100292.00;;;26.50
9119;BMP180;4594;50.994;7.126;2023-09-12T05:57:17;100294.00;;;26.50
9119;BMP180;4594;50.994;7.126;2023-09-12T05:59:43;100282.00;;;26.60
9119;BMP180;4594;50.994;7.126;2023-09-12T06:02:09;100314.00;;;26.60
9119;BMP180;4594;50.994;7.126;2023-09-12T06:04:35;100323.00;;;26.60
9119;BMP180;4594;50.994;7.126;2023-09-12T06:07:03;100316.00;;;26.70
9119;BMP180;4594;50.994;7.126;2023-09-12T06:09:29;100300.00;;;26.80
9119;BMP180;4594;50.994;7.126;2023-09-12T06:11:55;100315.00;;;26.90
9119;BMP180;4594;50.994;7.126;2023-09-12T06:14:21;100302.00;;;27.00
9119;BMP180;4594;50.994;7.126;2023-09-12T06:16:46;100312.00;;;27.30
9119;BMP180;4594;50.994;7.126;2023-09-12T06:19:12;100321.00;;;27.50
9119;BMP180;4594;50.994;7.126;2023-09-12T06:21:40;100320.00;;;27.80
9119;BMP180;4594;50.994;7.126;2023-09-12T06:24:20;100326.00;;;28.00
9119;BMP180;4594;50.994;7.126;2023-09-12T06:26:49;100319.00;;;28.10
9119;BMP180;4594;50.994;7.126;2023-09-12T06:29:15;100314.00;;;28.40
9119;BMP180;4594;50.994;7.126;2023-09-12T06:31:41;100316.00;;;28.60
9119;BMP180;4594;50.994;7.126;2023-09-12T06:34:08;100317.00;;;28.80
9119;BMP180;4594;50.994;7.126;2023-09-12T06:36:34;100330.00;;;29.00
9119;BMP180;4594;50.994;7.126;2023-09-12T06:39:00;100337.00;;;29.10
9119;BMP180;4594;50.994;7.126;2023-09-12T06:41:27;100304.00;;;29.30
9119;BMP180;4594;50.994;7.126;2023-09-12T06:43:53;100330.00;;;29.40
9119;BMP180;4594;50.994;7.126;2023-09-12T06:46:19;100301.00;;;29.60
9119;BMP180;4594;50.994;7.126;2023-09-12T06:48:45;100297.00;;;29.70
9119;BMP180;4594;50.994;7.126;2023-09-12T06:51:12;100320.00;;;30.00
9119;BMP180;4594;50.994;7.126;2023-09-12T06:53:38;100304.00;;;30.40
9119;BMP180;4594;50.994;7.126;2023-09-12T06:56:05;100317.00;;;30.80
9119;BMP180;4594;50.994;7.126;2023-09-12T06:58:31;100321.00;;;31.20
9119;BMP180;4594;50.994;7.126;2023-09-12T07:01:05;100315.00;;;31.60
9119;BMP180;4594;50.994;7.126;2023-09-12T07:03:33;100315.00;;;32.10
9119;BMP180;4594;50.994;7.126;2023-09-12T07:05:59;100324.00;;;32.40
9119;BMP180;4594;50.994;7.126;2023-09-12T07:08:25;100307.00;;;32.70
9119;BMP180;4594;50.994;7.126;2023-09-12T07:10:51;100325.00;;;32.90
9119;BMP180;4594;50.994;7.126;2023-09-12T07:13:16;100324.00;;;33.00
9119;BMP180;4594;50.994;7.126;2023-09-12T07:15:42;100310.00;;;33.10
9119;BMP180;4594;50.994;7.126;2023-09-12T07:18:08;100285.00;;;33.20
9119;BMP180;4594;50.994;7.126;2023-09-12T07:20:34;100332.00;;;33.20
9119;BMP180;4594;50.994;7.126;2023-09-12T07:23:00;100314.00;;;33.20
9119;BMP180;4594;50.994;7.126;2023-09-12T07:25:26;100306.00;;;33.30
9119;BMP180;4594;50.994;7.126;2023-09-12T07:27:52;100303.00;;;33.60
9119;BMP180;4594;50.994;7.126;2023-09-12T07:30:19;100294.00;;;33.80
9119;BMP180;4594;50.994;7.126;2023-09-12T07:32:44;100282.00;;;34.30
9119;BMP180;4594;50.994;7.126;2023-09-12T07:35:11;100278.00;;;34.70
9119;BMP180;4594;50.994;7.126;2023-09-12T07:37:38;100271.00;;;35.20
9119;BMP180;4594;50.994;7.126;2023-09-12T07:40:04;100289.00;;;35.60
9119;BMP180;4594;50.994;7.126;2023-09-12T07:42:35;100299.00;;;36.10
9119;BMP180;4594;50.994;7.126;2023-09-12T07:45:05;100308.00;;;36.60
9119;BMP180;4594;50.994;7.126;2023-09-12T07:47:32;100291.00;;;37.00
9119;BMP180;4594;50.994;7.126;2023-09-12T07:49:58;100312.00;;;37.30
9119;BMP180;4594;50.994;7.126;2023-09-12T07:52:26;100308.00;;;37.60
9119;BMP180;4594;50.994;7.126;2023-09-12T07:54:52;100307.00;;;37.80
9119;BMP180;4594;50.994;7.126;2023-09-12T07:57:23;100314.00;;;37.90
9119;BMP180;4594;50.994;7.126;2023-09-12T07:59:49;100310.00;;;38.20
9119;BMP180;4594;50.994;7.126;2023-09-12T08:02:14;100309.00;;;38.40
9119;BMP180;4594;50.994;7.126;2023-09-12T08:04:40;100299.00;;;38.70
9119;BMP180;4594;50.994;7.126;2023-09-12T08:07:06;100305.00;;;39.00
9119;BMP180;4594;50.994;7.126;2023-09-12T08:09:54;100315.00;;;39.20
9119;BMP180;4594;50.994;7.126;2023-09-12T08:12:21;100309.00;;;39.40
9119;BMP180;4594;50.994;7.126;2023-09-12T08:14:48;100318.00;;;39.60
9119;BMP180;4594;50.994;7.126;2023-09-12T08:17:14;100332.00;;;39.80
9119;BMP180;4594;50.994;7.126;2023-09-12T08:19:40;100313.00;;;40.00
9119;BMP180;4594;50.994;7.126;2023-09-12T08:22:07;100317.00;;;40.20
9119;BMP180;4594;50.994;7.126;2023-09-12T08:24:34;100321.00;;;40.40
9119;BMP180;4594;50.994;7.126;2023-09-12T08:27:01;100317.00;;;40.50
9119;BMP180;4594;50.994;7.126;2023-09-12T08:29:30;100311.00;;;40.70
9119;BMP180;4594;50.994;7.126;2023-09-12T08:31:58;100317.00;;;40.90
9119;BMP180;4594;50.994;7.126;2023-09-12T08:34:24;100320.00;;;41.10
9119;BMP180;4594;50.994;7.126;2023-09-12T08:36:50;100310.00;;;41.30
9119;BMP180;4594;50.994;7.126;2023-09-12T08:39:23;100319.00;;;41.50
9119;BMP180;4594;50.994;7.126;2023-09-12T08:41:50;100316.00;;;41.80
9119;BMP180;4594;50.994;7.126;2023-09-12T08:44:17;100310.00;;;42.20
9119;BMP180;4594;50.994;7.126;2023-09-12T08:46:44;100333.00;;;42.40
9119;BMP180;4594;50.994;7.126;2023-09-12T08:49:11;100320.00;;;42.50
9119;BMP180;4594;50.994;7.126;2023-09-12T08:51:38;100332.00;;;42.70
9119;BMP180;4594;50.994;7.126;2023-09-12T08:54:08;100336.00;;;42.80
9119;BMP180;4594;50.994;7.126;2023-09-12T08:56:40;100322.00;;;43.00
9119;BMP180;4594;50.994;7.126;2023-09-12T08:59:07;100340.00;;;43.20
9119;BMP180;4594;50.994;7.126;2023-09-12T09:01:35;100335.00;;;43.20
9119;BMP180;4594;50.994;7.126;2023-09-12T09:04:02;100342.00;;;43.30
9119;BMP180;4594;50.994;7.126;2023-09-12T09:06:31;100348.00;;;43.40
9119;BMP180;4594;50.994;7.126;2023-09-12T09:09:00;100332.00;;;43.60
9119;BMP180;4594;50.994;7.126;2023-09-12T09:11:27;100341.00;;;43.70
9119;BMP180;4594;50.994;7.126;2023-09-12T09:13:54;100353.00;;;43.80
9119;BMP180;4594;50.994;7.126;2023-09-12T09:16:20;100353.00;;;43.90
9119;BMP180;4594;50.994;7.126;2023-09-12T09:19:01;100365.00;;;44.20
9119;BMP180;4594;50.994;7.126;2023-09-12T09:21:32;100373.00;;;44.40
9119;BMP180;4594;50.994;7.126;2023-09-12T09:24:06;100363.00;;;44.60
9119;BMP180;4594;50.994;7.126;2023-09-12T09:26:46;100368.00;;;44.90
9119;BMP180;4594;50.994;7.126;2023-09-12T09:29:18;100362.00;;;45.20
9119;BMP180;4594;50.994;7.126;2023-09-12T09:31:47;100369.00;;;45.50
9119;BMP180;4594;50.994;7.126;2023-09-12T09:34:20;100366.00;;;45.70
9119;BMP180;4594;50.994;7.126;2023-09-12T09:36:53;100345.00;;;46.00
9119;BMP180;4594;50.994;7.126;2023-09-12T09:39:21;100363.00;;;46.30
9119;BMP180;4594;50.994;7.126;2023-09-12T09:41:50;100357.00;;;46.60
9119;BMP180;4594;50.994;7.126;2023-09-12T09:44:16;100386.00;;;46.40
9119;BMP180;4594;50.994;7.126;2023-09-12T09:46:46;100375.00;;;45.90
9119;BMP180;4594;50.994;7.126;2023-09-12T09:49:16;100370.00;;;45.40
9119;BMP180;4594;50.994;7.126;2023-09-12T09:51:44;100377.00;;;44.90
9119;BMP180;4594;50.994;7.126;2023-09-12T09:54:12;100372.00;;;44.50
9119;BMP180;4594;50.994;7.126;2023-09-12T09:56:50;100368.00;;;44.00
9119;BMP180;4594;50.994;7.126;2023-09-12T09:59:21;100358.00;;;43.80
9119;BMP180;4594;50.994;7.126;2023-09-12T10:01:50;100367.00;;;44.00
9119;BMP180;4594;50.994;7.126;2023-09-12T10:04:18;100370.00;;;43.80
9119;BMP180;4594;50.994;7.126;2023-09-12T10:06:46;100378.00;;;43.60
9119;BMP180;4594;50.994;7.126;2023-09-12T10:09:16;100375.00;;;43.50
9119;BMP180;4594;50.994;7.126;2023-09-12T10:11:47;100366.00;;;43.50
9119;BMP180;4594;50.994;7.126;2023-09-12T10:14:18;100344.00;;;43.30
9119;BMP180;4594;50.994;7.126;2023-09-12T10:16:49;100363.00;;;43.10
9119;BMP180;4594;50.994;7.126;2023-09-12T10:19:39;100345.00;;;42.90
9119;BMP180;4594;50.994;7.126;2023-09-12T10:23:07;100347.00;;;43.30
9119;BMP180;4594;50.994;7.126;2023-09-12T10:25:13;100340.00;;;43.60
9119;BMP180;4594;50.994;7.126;2023-09-12T10:27:39;100346.00;;;43.90
9119;BMP180;4594;50.994;7.126;2023-09-12T10:30:08;100349.00;;;44.30
9119;BMP180;4594;50.994;7.126;2023-09-12T10:32:35;100354.00;;;44.20
9119;BMP180;4594;50.994;7.126;2023-09-12T10:35:02;100356.00;;;43.80
9119;BMP180;4594;50.994;7.126;2023-09-12T10:37:31;100363.00;;;43.50
9119;BMP180;4594;50.994;7.126;2023-09-12T10:39:59;100358.00;;;43.20
9119;BMP180;4594;50.994;7.126;2023-09-12T10:42:27;100352.00;;;42.90
9119;BMP180;4594;50.994;7.126;2023-09-12T10:44:55;100357.00;;;42.50
9119;BMP180;4594;50.994;7.126;2023-09-12T10:47:22;100355.00;;;42.20
9119;BMP180;4594;50.994;7.126;2023-09-12T10:49:48;100349.00;;;41.90
9119;BMP180;4594;50.994;7.126;2023-09-12T10:52:27;100351.00;;;41.60
9119;BMP180;4594;50.994;7.126;2023-09-12T10:54:54;100354.00;;;41.30
9119;BMP180;4594;50.994;7.126;2023-09-12T10:57:20;100359.00;;;41.10
9119;BMP180;4594;50.994;7.126;2023-09-12T11:02:38;100369.00;;;40.40
9119;BMP180;4594;50.994;7.126;2023-09-12T11:07:58;100367.00;;;39.90
9119;BMP180;4594;50.994;7.126;2023-09-12T11:10:25;100361.00;;;39.70
9119;BMP180;4594;50.994;7.126;2023-09-12T11:12:54;100359.00;;;39.60
9119;BMP180;4594;50.994;7.126;2023-09-12T11:15:27;100356.00;;;39.50
9119;BMP180;4594;50.994;7.126;2023-09-12T11:18:06;100360.00;;;39.40
9119;BMP180;4594;50.994;7.126;2023-09-12T11:20:53;100359.00;;;39.30
9119;BMP180;4594;50.994;7.126;2023-09-12T11:23:25;100363.00;;;39.30
9119;BMP180;4594;50.994;7.126;2023-09-12T11:26:06;100356.00;;;39.20
9119;BMP180;4594;50.994;7.126;2023-09-12T11:28:32;100356.00;;;39.10
9119;BMP180;4594;50.994;7.126;2023-09-12T11:30:58;100348.00;;;39.00
9119;BMP180;4594;50.994;7.126;2023-09-12T11:33:25;100344.00;;;38.90
9119;BMP180;4594;50.994;7.126;2023-09-12T11:35:55;100349.00;;;38.90
9119;BMP180;4594;50.994;7.126;2023-09-12T11:38:28;100352.00;;;38.80
9119;BMP180;4594;50.994;7.126;2023-09-12T11:40:55;100357.00;;;38.70
9119;BMP180;4594;50.994;7.126;2023-09-12T11:43:27;100354.00;;;38.60
9119;BMP180;4594;50.994;7.126;2023-09-12T11:45:55;100349.00;;;38.60
9119;BMP180;4594;50.994;7.126;2023-09-12T11:48:21;100351.00;;;38.60
9119;BMP180;4594;50.994;7.126;2023-09-12T11:50:58;100350.00;;;38.50
9119;BMP180;4594;50.994;7.126;2023-09-12T11:53:27;100346.00;;;38.40
9119;BMP180;4594;50.994;7.126;2023-09-12T11:55:58;100349.00;;;38.40
9119;BMP180;4594;50.994;7.126;2023-09-12T11:58:26;100338.00;;;38.30
9119;BMP180;4594;50.994;7.126;2023-09-12T12:00:57;100325.00;;;38.20
9119;BMP180;4594;50.994;7.126;2023-09-12T12:03:26;100343.00;;;38.10
9119;BMP180;4594;50.994;7.126;2023-09-12T12:05:53;100336.00;;;38.00
9119;BMP180;4594;50.994;7.126;2023-09-12T12:08:19;100337.00;;;37.90
9119;BMP180;4594;50.994;7.126;2023-09-12T12:10:52;100339.00;;;37.80
9119;BMP180;4594;50.994;7.126;2023-09-12T12:13:20;100335.00;;;37.60
9119;BMP180;4594;50.994;7.126;2023-09-12T12:15:46;100343.00;;;37.50
9119;BMP180;4594;50.994;7.126;2023-09-12T12:18:13;100339.00;;;37.30
9119;BMP180;4594;50.994;7.126;2023-09-12T12:20:39;100337.00;;;37.20
9119;BMP180;4594;50.994;7.126;2023-09-12T12:23:05;100334.00;;;37.00
9119;BMP180;4594;50.994;7.126;2023-09-12T12:25:35;100326.00;;;36.90
9119;BMP180;4594;50.994;7.126;2023-09-12T12:28:02;100334.00;;;36.70
9119;BMP180;4594;50.994;7.126;2023-09-12T12:30:33;100318.00;;;36.60
9119;BMP180;4594;50.994;7.126;2023-09-12T12:33:06;100324.00;;;36.60
9119;BMP180;4594;50.994;7.126;2023-09-12T12:35:32;100332.00;;;36.50
9119;BMP180;4594;50.994;7.126;2023-09-12T12:37:57;100331.00;;;36.40
9119;BMP180;4594;50.994;7.126;2023-09-12T12:40:23;100320.00;;;36.40
9119;BMP180;4594;50.994;7.126;2023-09-12T12:42:49;100317.00;;;36.30
9119;BMP180;4594;50.994;7.126;2023-09-12T12:45:18;100314.00;;;36.20
9119;BMP180;4594;50.994;7.126;2023-09-12T12:47:45;100311.00;;;36.10
9119;BMP180;4594;50.994;7.126;2023-09-12T12:50:13;100305.00;;;36.00
9119;BMP180;4594;50.994;7.126;2023-09-12T12:52:40;100307.00;;;35.90
9119;BMP180;4594;50.994;7.126;2023-09-12T12:55:09;100311.00;;;35.80
9119;BMP180;4594;50.994;7.126;2023-09-12T12:57:42;100311.00;;;35.60
9119;BMP180;4594;50.994;7.126;2023-09-12T13:00:11;100299.00;;;35.60
9119;BMP180;4594;50.994;7.126;2023-09-12T13:02:38;100304.00;;;35.50
9119;BMP180;4594;50.994;7.126;2023-09-12T13:05:18;100314.00;;;35.40
9119;BMP180;4594;50.994;7.126;2023-09-12T13:07:44;100308.00;;;35.30
9119;BMP180;4594;50.994;7.126;2023-09-12T13:10:10;100302.00;;;35.20
9119;BMP180;4594;50.994;7.126;2023-09-12T13:12:36;100296.00;;;35.20
9119;BMP180;4594;50.994;7.126;2023-09-12T13:15:06;100282.00;;;35.10
9119;BMP180;4594;50.994;7.126;2023-09-12T13:17:32;100285.00;;;35.10
9119;BMP180;4594;50.994;7.126;2023-09-12T13:19:58;100291.00;;;35.00
9119;BMP180;4594;50.994;7.126;2023-09-12T13:22:23;100290.00;;;34.90
9119;BMP180;4594;50.994;7.126;2023-09-12T13:24:49;100286.00;;;34.90
9119;BMP180;4594;50.994;7.126;2023-09-12T13:27:15;100288.00;;;34.80
9119;BMP180;4594;50.994;7.126;2023-09-12T13:29:40;100280.00;;;34.80
9119;BMP180;4594;50.994;7.126;2023-09-12T13:32:06;100268.00;;;34.70
9119;BMP180;4594;50.994;7.126;2023-09-12T13:34:32;100274.00;;;34.70
9119;BMP180;4594;50.994;7.126;2023-09-12T13:36:57;100270.00;;;34.70
9119;BMP180;4594;50.994;7.126;2023-09-12T13:39:24;100274.00;;;34.70
9119;BMP180;4594;50.994;7.126;2023-09-12T13:41:50;100273.00;;;34.70
9119;BMP180;4594;50.994;7.126;2023-09-12T13:44:17;100271.00;;;34.70
9119;BMP180;4594;50.994;7.126;2023-09-12T13:46:43;100263.00;;;34.70
9119;BMP180;4594;50.994;7.126;2023-09-12T13:49:11;100263.00;;;34.70
9119;BMP180;4594;50.994;7.126;2023-09-12T13:51:37;100265.00;;;34.80
9119;BMP180;4594;50.994;7.126;2023-09-12T13:54:03;100280.00;;;34.80
9119;BMP180;4594;50.994;7.126;2023-09-12T13:56:29;100268.00;;;34.80
9119;BMP180;4594;50.994;7.126;2023-09-12T13:58:55;100270.00;;;34.90
9119;BMP180;4594;50.994;7.126;2023-09-12T14:01:21;100267.00;;;34.90
9119;BMP180;4594;50.994;7.126;2023-09-12T14:03:48;100268.00;;;34.90
9119;BMP180;4594;50.994;7.126;2023-09-12T14:06:14;100267.00;;;34.90
9119;BMP180;4594;50.994;7.126;2023-09-12T14:08:39;100266.00;;;34.90
9119;BMP180;4594;50.994;7.126;2023-09-12T14:11:05;100266.00;;;34.90
9119;BMP180;4594;50.994;7.126;2023-09-12T14:13:31;100260.00;;;34.90
9119;BMP180;4594;50.994;7.126;2023-09-12T14:15:56;100251.00;;;34.80
9119;BMP180;4594;50.994;7.126;2023-09-12T14:18:22;100258.00;;;34.80
9119;BMP180;4594;50.994;7.126;2023-09-12T14:20:47;100250.00;;;34.70
9119;BMP180;4594;50.994;7.126;2023-09-12T14:23:14;100257.00;;;34.70
9119;BMP180;4594;50.994;7.126;2023-09-12T14:25:39;100248.00;;;34.60
9119;BMP180;4594;50.994;7.126;2023-09-12T14:28:05;100243.00;;;34.60
9119;BMP180;4594;50.994;7.126;2023-09-12T14:30:31;100243.00;;;34.50
9119;BMP180;4594;50.994;7.126;2023-09-12T14:33:02;100241.00;;;34.40